sensor_id;sensor_type;location;lat;lon;timestamp;temperature;humidity
31675;DHT22;18276;45.520;11.018;2022-09-29T00:00:25;16.20;88.30
31675;DHT22;18276;45.520;11.018;2022-09-29T00:02:55;16.20;88.50
31675;DHT22;18276;45.520;11.018;2022-09-29T00:05:22;16.10;88.80
31675;DHT22;18276;45.520;11.018;2022-09-29T00:07:49;16.10;90.00
31675;DHT22;18276;45.520;11.018;2022-09-29T00:10:16;16.10;89.60
31675;DHT22;18276;45.520;11.018;2022-09-29T00:12:43;16.10;89.80
31675;DHT22;18276;45.520;11.018;2022-09-29T00:15:10;16.10;90.10
31675;DHT22;18276;45.520;11.018;2022-09-29T00:17:38;16.10;89.90
31675;DHT22;18276;45.520;11.018;2022-09-29T00:20:23;16.10;90.00
31675;DHT22;18276;45.520;11.018;2022-09-29T00:22:50;16.10;90.10
31675;DHT22;18276;45.520;11.018;2022-09-29T00:25:18;16.20;90.20
31675;DHT22;18276;45.520;11.018;2022-09-29T00:27:45;16.20;90.20
31675;DHT22;18276;45.520;11.018;2022-09-29T00:30:12;16.30;90.20
31675;DHT22;18276;45.520;11.018;2022-09-29T00:32:39;16.20;90.20
31675;DHT22;18276;45.520;11.018;2022-09-29T00:35:07;16.30;90.30
31675;DHT22;18276;45.520;11.018;2022-09-29T00:37:35;16.30;90.30
31675;DHT22;18276;45.520;11.018;2022-09-29T00:40:03;16.40;90.30
31675;DHT22;18276;45.520;11.018;2022-09-29T00:42:31;16.40;90.30
31675;DHT22;18276;45.520;11.018;2022-09-29T00:45:20;16.40;90.30
31675;DHT22;18276;45.520;11.018;2022-09-29T00:47:55;16.50;90.30
31675;DHT22;18276;45.520;11.018;2022-09-29T00:50:42;16.50;90.30
31675;DHT22;18276;45.520;11.018;2022-09-29T00:53:11;16.50;90.30
31675;DHT22;18276;45.520;11.018;2022-09-29T00:56:02;16.50;90.30
31675;DHT22;18276;45.520;11.018;2022-09-29T00:58:34;16.60;90.40
31675;DHT22;18276;45.520;11.018;2022-09-29T01:01:03;16.50;90.20
31675;DHT22;18276;45.520;11.018;2022-09-29T01:03:34;16.50;90.30
31675;DHT22;18276;45.520;11.018;2022-09-29T01:06:32;16.50;90.50
31675;DHT22;18276;45.520;11.018;2022-09-29T01:09:00;16.60;90.70
31675;DHT22;18276;45.520;11.018;2022-09-29T01:11:28;16.60;90.70
31675;DHT22;18276;45.520;11.018;2022-09-29T01:13:57;16.60;90.80
31675;DHT22;18276;45.520;11.018;2022-09-29T01:16:33;16.60;90.90
31675;DHT22;18276;45.520;11.018;2022-09-29T01:19:09;16.60;91.00
31675;DHT22;18276;45.520;11.018;2022-09-29T01:41:35;16.50;91.20
31675;DHT22;18276;45.520;11.018;2022-09-29T01:46:43;16.40;91.60
31675;DHT22;18276;45.520;11.018;2022-09-29T01:49:13;16.30;91.80
31675;DHT22;18276;45.520;11.018;2022-09-29T01:51:53;16.30;92.00
31675;DHT22;18276;45.520;11.018;2022-09-29T01:54:46;16.30;92.30
31675;DHT22;18276;45.520;11.018;2022-09-29T01:57:26;16.20;92.40
31675;DHT22;18276;45.520;11.018;2022-09-29T02:00:06;16.10;92.60
31675;DHT22;18276;45.520;11.018;2022-09-29T02:02:54;16.00;92.90
31675;DHT22;18276;45.520;11.018;2022-09-29T02:07:54;15.90;93.20
31675;DHT22;18276;45.520;11.018;2022-09-29T02:10:29;15.80;93.60
31675;DHT22;18276;45.520;11.018;2022-09-29T02:12:59;15.80;93.80
31675;DHT22;18276;45.520;11.018;2022-09-29T02:15:31;15.80;93.90
31675;DHT22;18276;45.520;11.018;2022-09-29T02:18:05;15.70;94.20
31675;DHT22;18276;45.520;11.018;2022-09-29T02:20:34;15.70;94.50
31675;DHT22;18276;45.520;11.018;2022-09-29T02:23:01;15.60;94.80
31675;DHT22;18276;45.520;11.018;2022-09-29T02:25:28;15.60;95.20
31675;DHT22;18276;45.520;11.018;2022-09-29T02:27:55;15.60;95.50
31675;DHT22;18276;45.520;11.018;2022-09-29T02:30:22;15.60;95.80
31675;DHT22;18276;45.520;11.018;2022-09-29T02:32:49;15.60;96.20
31675;DHT22;18276;45.520;11.018;2022-09-29T02:35:17;15.60;96.60
31675;DHT22;18276;45.520;11.018;2022-09-29T02:38:13;15.60;96.90
31675;DHT22;18276;45.520;11.018;2022-09-29T02:43:54;15.60;97.60
31675;DHT22;18276;45.520;11.018;2022-09-29T02:46:54;15.50;97.90
31675;DHT22;18276;45.520;11.018;2022-09-29T02:55:34;15.50;99.30
31675;DHT22;18276;45.520;11.018;2022-09-29T02:58:17;15.60;99.40
31675;DHT22;18276;45.520;11.018;2022-09-29T03:00:46;15.70;99.40
31675;DHT22;18276;45.520;11.018;2022-09-29T03:03:13;15.70;99.40
31675;DHT22;18276;45.520;11.018;2022-09-29T03:05:41;15.70;99.60
31675;DHT22;18276;45.520;11.018;2022-09-29T03:08:07;15.70;99.80
31675;DHT22;18276;45.520;11.018;2022-09-29T03:10:34;15.60;99.90
31675;DHT22;18276;45.520;11.018;2022-09-29T03:13:01;15.60;99.90
31675;DHT22;18276;45.520;11.018;2022-09-29T03:15:28;15.50;99.90
31675;DHT22;18276;45.520;11.018;2022-09-29T03:17:56;15.50;99.90
31675;DHT22;18276;45.520;11.018;2022-09-29T03:20:23;15.40;99.90
31675;DHT22;18276;45.520;11.018;2022-09-29T03:22:50;15.40;99.90
31675;DHT22;18276;45.520;11.018;2022-09-29T03:25:21;15.40;99.90
31675;DHT22;18276;45.520;11.018;2022-09-29T03:27:50;15.40;99.90
31675;DHT22;18276;45.520;11.018;2022-09-29T03:30:17;15.40;99.90
31675;DHT22;18276;45.520;11.018;2022-09-29T03:32:45;15.40;99.90
31675;DHT22;18276;45.520;11.018;2022-09-29T03:35:12;15.40;99.90
31675;DHT22;18276;45.520;11.018;2022-09-29T03:37:38;15.40;99.90
31675;DHT22;18276;45.520;11.018;2022-09-29T03:40:06;15.40;99.90
31675;DHT22;18276;45.520;11.018;2022-09-29T03:42:33;15.40;99.90
31675;DHT22;18276;45.520;11.018;2022-09-29T03:45:00;15.30;99.90
31675;DHT22;18276;45.520;11.018;2022-09-29T03:47:27;15.30;99.90
31675;DHT22;18276;45.520;11.018;2022-09-29T03:49:56;15.30;99.90
31675;DHT22;18276;45.520;11.018;2022-09-29T03:52:23;15.20;99.90
31675;DHT22;18276;45.520;11.018;2022-09-29T03:54:50;15.20;99.90
31675;DHT22;18276;45.520;11.018;2022-09-29T03:57:17;15.10;99.90
31675;DHT22;18276;45.520;11.018;2022-09-29T03:59:44;15.10;99.90
31675;DHT22;18276;45.520;11.018;2022-09-29T04:02:12;15.10;99.90
31675;DHT22;18276;45.520;11.018;2022-09-29T04:04:39;15.10;99.90
31675;DHT22;18276;45.520;11.018;2022-09-29T04:07:07;15.10;99.90
31675;DHT22;18276;45.520;11.018;2022-09-29T04:09:33;15.10;99.90
31675;DHT22;18276;45.520;11.018;2022-09-29T04:12:00;15.10;99.90
31675;DHT22;18276;45.520;11.018;2022-09-29T04:14:27;15.10;99.90
31675;DHT22;18276;45.520;11.018;2022-09-29T04:16:54;15.00;99.90
31675;DHT22;18276;45.520;11.018;2022-09-29T04:19:21;15.00;99.90
31675;DHT22;18276;45.520;11.018;2022-09-29T04:21:48;15.00;99.90
31675;DHT22;18276;45.520;11.018;2022-09-29T04:24:15;15.00;99.90
31675;DHT22;18276;45.520;11.018;2022-09-29T04:26:42;15.00;99.90
31675;DHT22;18276;45.520;11.018;2022-09-29T04:29:10;15.00;99.90
31675;DHT22;18276;45.520;11.018;2022-09-29T04:31:37;15.00;99.90
31675;DHT22;18276;45.520;11.018;2022-09-29T04:34:04;14.90;99.90
31675;DHT22;18276;45.520;11.018;2022-09-29T04:36:31;14.90;99.90
31675;DHT22;18276;45.520;11.018;2022-09-29T04:38:58;14.90;99.90
31675;DHT22;18276;45.520;11.018;2022-09-29T04:41:26;14.90;99.90
31675;DHT22;18276;45.520;11.018;2022-09-29T04:43:53;14.90;99.90
31675;DHT22;18276;45.520;11.018;2022-09-29T04:46:20;14.90;99.90
31675;DHT22;18276;45.520;11.018;2022-09-29T04:48:47;14.90;99.90
31675;DHT22;18276;45.520;11.018;2022-09-29T04:51:14;14.80;99.90
31675;DHT22;18276;45.520;11.018;2022-09-29T04:53:42;14.80;99.90
31675;DHT22;18276;45.520;11.018;2022-09-29T04:56:09;14.80;99.90
31675;DHT22;18276;45.520;11.018;2022-09-29T04:58:36;14.80;99.90
31675;DHT22;18276;45.520;11.018;2022-09-29T05:01:08;14.70;99.90
31675;DHT22;18276;45.520;11.018;2022-09-29T05:03:36;14.80;99.90
31675;DHT22;18276;45.520;11.018;2022-09-29T05:06:03;14.70;99.90
31675;DHT22;18276;45.520;11.018;2022-09-29T05:08:30;14.70;99.90
31675;DHT22;18276;45.520;11.018;2022-09-29T05:10:57;14.70;99.90
31675;DHT22;18276;45.520;11.018;2022-09-29T05:13:24;14.60;99.90
31675;DHT22;18276;45.520;11.018;2022-09-29T05:15:55;14.70;99.90
31675;DHT22;18276;45.520;11.018;2022-09-29T05:18:23;14.70;99.90
31675;DHT22;18276;45.520;11.018;2022-09-29T05:20:50;14.70;99.90
31675;DHT22;18276;45.520;11.018;2022-09-29T05:23:37;14.60;99.90
31675;DHT22;18276;45.520;11.018;2022-09-29T05:26:06;14.60;99.90
31675;DHT22;18276;45.520;11.018;2022-09-29T05:28:34;14.70;99.90
31675;DHT22;18276;45.520;11.018;2022-09-29T05:31:06;14.70;99.90
31675;DHT22;18276;45.520;11.018;2022-09-29T05:33:35;14.70;99.90
31675;DHT22;18276;45.520;11.018;2022-09-29T05:36:07;14.70;99.90
31675;DHT22;18276;45.520;11.018;2022-09-29T05:38:35;14.80;99.90
31675;DHT22;18276;45.520;11.018;2022-09-29T05:41:07;14.90;99.90
31675;DHT22;18276;45.520;11.018;2022-09-29T05:43:35;15.00;99.90
31675;DHT22;18276;45.520;11.018;2022-09-29T05:46:04;15.10;99.90
31675;DHT22;18276;45.520;11.018;2022-09-29T05:48:31;15.00;99.90
31675;DHT22;18276;45.520;11.018;2022-09-29T05:51:05;15.10;99.90
31675;DHT22;18276;45.520;11.018;2022-09-29T05:53:32;15.10;99.90
31675;DHT22;18276;45.520;11.018;2022-09-29T05:56:06;15.10;99.90
31675;DHT22;18276;45.520;11.018;2022-09-29T05:58:35;15.20;99.90
31675;DHT22;18276;45.520;11.018;2022-09-29T06:01:14;15.30;99.90
31675;DHT22;18276;45.520;11.018;2022-09-29T06:03:41;15.30;99.90
31675;DHT22;18276;45.520;11.018;2022-09-29T06:06:17;15.40;99.90
31675;DHT22;18276;45.520;11.018;2022-09-29T06:08:44;15.40;99.90
31675;DHT22;18276;45.520;11.018;2022-09-29T06:11:18;15.50;99.90
31675;DHT22;18276;45.520;11.018;2022-09-29T06:13:47;15.50;99.90
31675;DHT22;18276;45.520;11.018;2022-09-29T06:16:17;15.50;99.90
31675;DHT22;18276;45.520;11.018;2022-09-29T06:18:46;15.50;99.90
31675;DHT22;18276;45.520;11.018;2022-09-29T06:21:18;15.50;99.90
31675;DHT22;18276;45.520;11.018;2022-09-29T06:23:46;15.60;99.90
31675;DHT22;18276;45.520;11.018;2022-09-29T06:26:15;15.60;99.90
31675;DHT22;18276;45.520;11.018;2022-09-29T06:28:49;15.60;99.90
31675;DHT22;18276;45.520;11.018;2022-09-29T06:31:19;15.70;99.90
31675;DHT22;18276;45.520;11.018;2022-09-29T06:33:47;15.80;99.90
31675;DHT22;18276;45.520;11.018;2022-09-29T06:39:03;15.90;99.90
31675;DHT22;18276;45.520;11.018;2022-09-29T06:41:31;16.00;99.90
31675;DHT22;18276;45.520;11.018;2022-09-29T06:43:59;16.10;99.90
31675;DHT22;18276;45.520;11.018;2022-09-29T06:46:26;16.20;99.90
31675;DHT22;18276;45.520;11.018;2022-09-29T06:48:53;16.30;99.90
31675;DHT22;18276;45.520;11.018;2022-09-29T06:51:22;16.50;99.90
31675;DHT22;18276;45.520;11.018;2022-09-29T06:53:57;16.60;99.90
31675;DHT22;18276;45.520;11.018;2022-09-29T06:56:37;16.60;99.80
31675;DHT22;18276;45.520;11.018;2022-09-29T06:59:04;16.70;99.60
31675;DHT22;18276;45.520;11.018;2022-09-29T07:01:31;16.70;99.30
31675;DHT22;18276;45.520;11.018;2022-09-29T07:03:58;16.80;99.00
31675;DHT22;18276;45.520;11.018;2022-09-29T07:06:28;16.70;98.90
31675;DHT22;18276;45.520;11.018;2022-09-29T07:08:57;16.60;99.50
31675;DHT22;18276;45.520;11.018;2022-09-29T07:11:25;16.60;99.90
31675;DHT22;18276;45.520;11.018;2022-09-29T07:13:53;16.50;99.90
31675;DHT22;18276;45.520;11.018;2022-09-29T07:16:21;16.30;99.90
31675;DHT22;18276;45.520;11.018;2022-09-29T07:18:51;16.20;99.90
31675;DHT22;18276;45.520;11.018;2022-09-29T07:21:19;16.10;99.90
31675;DHT22;18276;45.520;11.018;2022-09-29T07:23:48;16.00;99.90
31675;DHT22;18276;45.520;11.018;2022-09-29T07:26:16;16.00;99.90
31675;DHT22;18276;45.520;11.018;2022-09-29T07:28:45;15.90;99.90
31675;DHT22;18276;45.520;11.018;2022-09-29T07:31:17;16.00;99.90
31675;DHT22;18276;45.520;11.018;2022-09-29T07:33:47;15.90;99.90
31675;DHT22;18276;45.520;11.018;2022-09-29T07:36:16;15.90;99.90
31675;DHT22;18276;45.520;11.018;2022-09-29T07:38:50;15.90;99.90
31675;DHT22;18276;45.520;11.018;2022-09-29T07:41:20;15.80;99.90
31675;DHT22;18276;45.520;11.018;2022-09-29T07:43:47;15.80;99.90
31675;DHT22;18276;45.520;11.018;2022-09-29T07:46:14;15.80;99.90
31675;DHT22;18276;45.520;11.018;2022-09-29T07:48:42;15.80;99.90
31675;DHT22;18276;45.520;11.018;2022-09-29T07:51:14;15.80;99.90
31675;DHT22;18276;45.520;11.018;2022-09-29T07:53:42;15.90;99.90
31675;DHT22;18276;45.520;11.018;2022-09-29T07:56:19;15.90;99.90
31675;DHT22;18276;45.520;11.018;2022-09-29T07:58:47;15.90;99.90
31675;DHT22;18276;45.520;11.018;2022-09-29T08:01:19;15.90;99.90
31675;DHT22;18276;45.520;11.018;2022-09-29T08:03:52;16.00;99.90
31675;DHT22;18276;45.520;11.018;2022-09-29T08:06:21;16.00;99.90
31675;DHT22;18276;45.520;11.018;2022-09-29T08:08:48;16.10;99.90
31675;DHT22;18276;45.520;11.018;2022-09-29T08:11:30;16.20;99.90
31675;DHT22;18276;45.520;11.018;2022-09-29T08:13:59;16.30;99.90
31675;DHT22;18276;45.520;11.018;2022-09-29T08:16:26;16.50;99.90
31675;DHT22;18276;45.520;11.018;2022-09-29T08:18:53;16.60;99.90
31675;DHT22;18276;45.520;11.018;2022-09-29T08:21:21;16.70;99.90
31675;DHT22;18276;45.520;11.018;2022-09-29T08:23:48;16.80;99.90
31675;DHT22;18276;45.520;11.018;2022-09-29T08:26:17;17.00;99.90
31675;DHT22;18276;45.520;11.018;2022-09-29T08:28:52;17.30;99.90
31675;DHT22;18276;45.520;11.018;2022-09-29T08:31:33;17.50;99.90
31675;DHT22;18276;45.520;11.018;2022-09-29T08:34:00;17.70;99.90
31675;DHT22;18276;45.520;11.018;2022-09-29T08:36:27;18.20;99.90
31675;DHT22;18276;45.520;11.018;2022-09-29T08:38:56;18.80;99.90
31675;DHT22;18276;45.520;11.018;2022-09-29T08:47:18;20.80;98.80
31675;DHT22;18276;45.520;11.018;2022-09-29T08:50:00;21.30;95.40
31675;DHT22;18276;45.520;11.018;2022-09-29T08:52:36;21.70;92.90
31675;DHT22;18276;45.520;11.018;2022-09-29T08:57:53;22.20;89.60
31675;DHT22;18276;45.520;11.018;2022-09-29T09:00:23;22.40;87.60
31675;DHT22;18276;45.520;11.018;2022-09-29T09:03:18;22.70;86.10
31675;DHT22;18276;45.520;11.018;2022-09-29T09:12:14;24.80;75.90
31675;DHT22;18276;45.520;11.018;2022-09-29T09:26:03;22.70;76.40
31675;DHT22;18276;45.520;11.018;2022-09-29T09:31:14;22.00;77.90
31675;DHT22;18276;45.520;11.018;2022-09-29T09:33:56;21.90;78.90
31675;DHT22;18276;45.520;11.018;2022-09-29T09:36:36;21.90;79.40
31675;DHT22;18276;45.520;11.018;2022-09-29T09:42:06;23.10;77.50
31675;DHT22;18276;45.520;11.018;2022-09-29T09:44:47;23.70;75.00
31675;DHT22;18276;45.520;11.018;2022-09-29T09:47:25;24.20;73.20
31675;DHT22;18276;45.520;11.018;2022-09-29T09:50:04;25.00;71.80
31675;DHT22;18276;45.520;11.018;2022-09-29T09:52:46;26.00;68.40
31675;DHT22;18276;45.520;11.018;2022-09-29T09:55:17;26.40;65.20
31675;DHT22;18276;45.520;11.018;2022-09-29T10:00:49;27.00;63.80
31675;DHT22;18276;45.520;11.018;2022-09-29T10:03:17;29.40;59.90
31675;DHT22;18276;45.520;11.018;2022-09-29T10:05:46;31.40;56.00
31675;DHT22;18276;45.520;11.018;2022-09-29T10:08:35;33.00;51.10
31675;DHT22;18276;45.520;11.018;2022-09-29T10:11:22;32.80;47.00
31675;DHT22;18276;45.520;11.018;2022-09-29T10:19:09;33.60;43.70
31675;DHT22;18276;45.520;11.018;2022-09-29T10:21:42;33.20;43.50
31675;DHT22;18276;45.520;11.018;2022-09-29T10:24:27;32.50;41.90
31675;DHT22;18276;45.520;11.018;2022-09-29T10:26:56;31.30;44.90
31675;DHT22;18276;45.520;11.018;2022-09-29T10:34:35;29.20;49.20
31675;DHT22;18276;45.520;11.018;2022-09-29T10:37:06;29.40;49.10
31675;DHT22;18276;45.520;11.018;2022-09-29T10:39:45;29.70;48.30
31675;DHT22;18276;45.520;11.018;2022-09-29T10:42:21;29.40;48.30
31675;DHT22;18276;45.520;11.018;2022-09-29T10:44:52;28.80;49.10
31675;DHT22;18276;45.520;11.018;2022-09-29T10:47:22;28.20;50.00
31675;DHT22;18276;45.520;11.018;2022-09-29T10:50:07;27.40;51.30
31675;DHT22;18276;45.520;11.018;2022-09-29T10:52:51;26.60;53.50
31675;DHT22;18276;45.520;11.018;2022-09-29T10:57:55;25.50;56.70
31675;DHT22;18276;45.520;11.018;2022-09-29T11:00:25;25.10;58.20
31675;DHT22;18276;45.520;11.018;2022-09-29T11:02:57;24.80;58.50
31675;DHT22;18276;45.520;11.018;2022-09-29T11:05:26;24.60;59.30
31675;DHT22;18276;45.520;11.018;2022-09-29T11:07:53;24.90;60.10
31675;DHT22;18276;45.520;11.018;2022-09-29T11:10:33;25.60;58.70
31675;DHT22;18276;45.520;11.018;2022-09-29T11:15:51;26.10;56.40
31675;DHT22;18276;45.520;11.018;2022-09-29T11:18:27;25.70;56.70
31675;DHT22;18276;45.520;11.018;2022-09-29T11:21:38;25.40;57.10
31675;DHT22;18276;45.520;11.018;2022-09-29T11:27:32;24.30;58.50
31675;DHT22;18276;45.520;11.018;2022-09-29T11:30:18;24.00;60.00
31675;DHT22;18276;45.520;11.018;2022-09-29T11:33:05;23.80;60.80
31675;DHT22;18276;45.520;11.018;2022-09-29T11:41:18;24.10;61.00
31675;DHT22;18276;45.520;11.018;2022-09-29T11:43:54;24.00;61.10
31675;DHT22;18276;45.520;11.018;2022-09-29T11:49:03;23.60;62.90
31675;DHT22;18276;45.520;11.018;2022-09-29T12:00:10;24.10;61.20
31675;DHT22;18276;45.520;11.018;2022-09-29T12:14:27;24.10;59.00
31675;DHT22;18276;45.520;11.018;2022-09-29T12:17:00;24.10;58.90
31675;DHT22;18276;45.520;11.018;2022-09-29T12:19:30;24.10;59.20
31675;DHT22;18276;45.520;11.018;2022-09-29T12:22:01;24.10;59.60
31675;DHT22;18276;45.520;11.018;2022-09-29T12:24:49;24.20;59.80
31675;DHT22;18276;45.520;11.018;2022-09-29T12:27:36;24.30;59.70
31675;DHT22;18276;45.520;11.018;2022-09-29T12:30:19;24.50;58.30
31675;DHT22;18276;45.520;11.018;2022-09-29T12:39:04;23.40;58.70
31675;DHT22;18276;45.520;11.018;2022-09-29T12:41:38;22.90;59.80
31675;DHT22;18276;45.520;11.018;2022-09-29T12:47:12;22.50;61.70
31675;DHT22;18276;45.520;11.018;2022-09-29T12:50:04;22.50;62.00
31675;DHT22;18276;45.520;11.018;2022-09-29T12:52:44;22.50;61.80
31675;DHT22;18276;45.520;11.018;2022-09-29T12:55:18;22.40;62.30
31675;DHT22;18276;45.520;11.018;2022-09-29T12:57:53;22.40;62.20
31675;DHT22;18276;45.520;11.018;2022-09-29T13:00:22;22.40;62.70
31675;DHT22;18276;45.520;11.018;2022-09-29T13:06:38;22.60;64.30
31675;DHT22;18276;45.520;11.018;2022-09-29T13:08:56;22.50;64.80
31675;DHT22;18276;45.520;11.018;2022-09-29T13:19:39;22.90;68.00
31675;DHT22;18276;45.520;11.018;2022-09-29T13:28:24;25.00;67.90
31675;DHT22;18276;45.520;11.018;2022-09-29T13:30:53;24.90;66.90
31675;DHT22;18276;45.520;11.018;2022-09-29T13:33:24;24.40;67.80
31675;DHT22;18276;45.520;11.018;2022-09-29T13:35:51;23.80;69.00
31675;DHT22;18276;45.520;11.018;2022-09-29T13:38:35;23.30;70.70
31675;DHT22;18276;45.520;11.018;2022-09-29T13:41:14;22.90;71.70
31675;DHT22;18276;45.520;11.018;2022-09-29T13:51:58;22.00;73.40
31675;DHT22;18276;45.520;11.018;2022-09-29T13:57:07;21.80;74.20
31675;DHT22;18276;45.520;11.018;2022-09-29T14:10:23;21.90;74.80
31675;DHT22;18276;45.520;11.018;2022-09-29T14:13:02;21.90;74.00
31675;DHT22;18276;45.520;11.018;2022-09-29T14:15:41;21.70;73.60
31675;DHT22;18276;45.520;11.018;2022-09-29T14:18:25;21.40;73.50
31675;DHT22;18276;45.520;11.018;2022-09-29T14:21:05;21.20;73.50
31675;DHT22;18276;45.520;11.018;2022-09-29T14:29:22;20.70;74.20
31675;DHT22;18276;45.520;11.018;2022-09-29T14:31:54;20.70;72.40
31675;DHT22;18276;45.520;11.018;2022-09-29T14:34:30;20.70;71.10
31675;DHT22;18276;45.520;11.018;2022-09-29T14:36:59;20.90;69.90
31675;DHT22;18276;45.520;11.018;2022-09-29T14:39:28;21.00;68.80
31675;DHT22;18276;45.520;11.018;2022-09-29T14:41:55;21.30;68.60
31675;DHT22;18276;45.520;11.018;2022-09-29T14:44:29;21.70;67.40
31675;DHT22;18276;45.520;11.018;2022-09-29T14:53:50;21.10;65.60
31675;DHT22;18276;45.520;11.018;2022-09-29T15:01:28;19.90;68.50
31675;DHT22;18276;45.520;11.018;2022-09-29T15:04:18;19.60;69.70
31675;DHT22;18276;45.520;11.018;2022-09-29T15:06:49;19.20;70.50
31675;DHT22;18276;45.520;11.018;2022-09-29T15:09:20;18.90;71.20
31675;DHT22;18276;45.520;11.018;2022-09-29T15:11:51;18.60;72.00
31675;DHT22;18276;45.520;11.018;2022-09-29T15:14:28;18.50;72.90
31675;DHT22;18276;45.520;11.018;2022-09-29T15:20:17;18.20;75.40
31675;DHT22;18276;45.520;11.018;2022-09-29T15:22:56;18.10;76.20
31675;DHT22;18276;45.520;11.018;2022-09-29T15:30:32;17.90;78.00
31675;DHT22;18276;45.520;11.018;2022-09-29T15:35:40;17.80;78.90
31675;DHT22;18276;45.520;11.018;2022-09-29T15:38:24;17.70;79.00
31675;DHT22;18276;45.520;11.018;2022-09-29T15:40:57;17.60;79.30
31675;DHT22;18276;45.520;11.018;2022-09-29T15:43:37;17.50;79.80
31675;DHT22;18276;45.520;11.018;2022-09-29T15:51:31;17.40;82.10
31675;DHT22;18276;45.520;11.018;2022-09-29T15:53:58;17.40;82.20
31675;DHT22;18276;45.520;11.018;2022-09-29T15:56:27;17.40;82.50
31675;DHT22;18276;45.520;11.018;2022-09-29T15:58:57;17.40;83.00
31675;DHT22;18276;45.520;11.018;2022-09-29T16:01:24;17.40;83.30
31675;DHT22;18276;45.520;11.018;2022-09-29T16:03:55;17.50;83.70
31675;DHT22;18276;45.520;11.018;2022-09-29T16:06:30;17.50;84.10
31675;DHT22;18276;45.520;11.018;2022-09-29T16:09:06;17.60;83.80
31675;DHT22;18276;45.520;11.018;2022-09-29T16:11:41;17.60;83.60
31675;DHT22;18276;45.520;11.018;2022-09-29T16:14:21;17.60;83.30
31675;DHT22;18276;45.520;11.018;2022-09-29T16:16:50;17.70;83.10
31675;DHT22;18276;45.520;11.018;2022-09-29T16:21:51;17.70;82.90
31675;DHT22;18276;45.520;11.018;2022-09-29T16:24:20;17.70;82.80
31675;DHT22;18276;45.520;11.018;2022-09-29T16:26:52;17.70;82.60
31675;DHT22;18276;45.520;11.018;2022-09-29T16:31:50;17.60;82.60
31675;DHT22;18276;45.520;11.018;2022-09-29T16:36:50;17.50;83.20
31675;DHT22;18276;45.520;11.018;2022-09-29T16:39:23;17.40;83.10
31675;DHT22;18276;45.520;11.018;2022-09-29T16:41:55;17.40;83.00
31675;DHT22;18276;45.520;11.018;2022-09-29T16:44:32;17.40;82.90
31675;DHT22;18276;45.520;11.018;2022-09-29T16:47:25;17.40;82.80
31675;DHT22;18276;45.520;11.018;2022-09-29T16:49:54;17.30;82.80
31675;DHT22;18276;45.520;11.018;2022-09-29T16:52:28;17.30;82.80
31675;DHT22;18276;45.520;11.018;2022-09-29T16:58:07;17.20;83.50
31675;DHT22;18276;45.520;11.018;2022-09-29T17:00:35;17.20;84.00
31675;DHT22;18276;45.520;11.018;2022-09-29T17:03:03;17.10;84.20
31675;DHT22;18276;45.520;11.018;2022-09-29T17:05:37;17.00;84.70
31675;DHT22;18276;45.520;11.018;2022-09-29T17:10:40;17.00;85.50
31675;DHT22;18276;45.520;11.018;2022-09-29T17:13:12;16.90;85.70
31675;DHT22;18276;45.520;11.018;2022-09-29T17:15:39;16.90;86.10
31675;DHT22;18276;45.520;11.018;2022-09-29T17:18:17;16.80;86.40
31675;DHT22;18276;45.520;11.018;2022-09-29T17:20:44;16.80;86.80
31675;DHT22;18276;45.520;11.018;2022-09-29T17:23:12;16.80;87.10
31675;DHT22;18276;45.520;11.018;2022-09-29T17:25:41;16.80;87.40
31675;DHT22;18276;45.520;11.018;2022-09-29T17:28:17;16.70;87.70
31675;DHT22;18276;45.520;11.018;2022-09-29T17:30:47;16.70;87.90
31675;DHT22;18276;45.520;11.018;2022-09-29T17:33:15;16.70;88.10
31675;DHT22;18276;45.520;11.018;2022-09-29T17:35:45;16.70;88.00
31675;DHT22;18276;45.520;11.018;2022-09-29T17:38:17;16.70;87.30
31675;DHT22;18276;45.520;11.018;2022-09-29T17:41:08;16.70;87.10
31675;DHT22;18276;45.520;11.018;2022-09-29T17:43:35;16.70;87.30
31675;DHT22;18276;45.520;11.018;2022-09-29T17:46:04;16.70;87.40
31675;DHT22;18276;45.520;11.018;2022-09-29T17:48:31;16.70;87.90
31675;DHT22;18276;45.520;11.018;2022-09-29T17:51:00;16.70;88.10
31675;DHT22;18276;45.520;11.018;2022-09-29T17:53:29;16.60;88.40
31675;DHT22;18276;45.520;11.018;2022-09-29T17:55:56;16.70;88.70
31675;DHT22;18276;45.520;11.018;2022-09-29T17:58:24;16.60;88.90
31675;DHT22;18276;45.520;11.018;2022-09-29T18:00:52;16.70;89.10
31675;DHT22;18276;45.520;11.018;2022-09-29T18:03:20;16.70;89.20
31675;DHT22;18276;45.520;11.018;2022-09-29T18:05:49;16.60;89.30
31675;DHT22;18276;45.520;11.018;2022-09-29T18:08:23;16.60;89.50
31675;DHT22;18276;45.520;11.018;2022-09-29T18:10:53;16.60;89.80
31675;DHT22;18276;45.520;11.018;2022-09-29T18:13:21;16.60;90.00
31675;DHT22;18276;45.520;11.018;2022-09-29T18:15:49;16.60;90.10
31675;DHT22;18276;45.520;11.018;2022-09-29T18:18:18;16.60;90.30
31675;DHT22;18276;45.520;11.018;2022-09-29T18:20:46;16.60;90.40
31675;DHT22;18276;45.520;11.018;2022-09-29T18:23:16;16.60;90.40
31675;DHT22;18276;45.520;11.018;2022-09-29T18:25:46;16.60;90.50
31675;DHT22;18276;45.520;11.018;2022-09-29T18:28:15;16.60;90.60
31675;DHT22;18276;45.520;11.018;2022-09-29T18:30:44;16.60;90.70
31675;DHT22;18276;45.520;11.018;2022-09-29T18:33:14;16.60;90.80
31675;DHT22;18276;45.520;11.018;2022-09-29T18:35:43;16.60;90.90
31675;DHT22;18276;45.520;11.018;2022-09-29T18:38:11;16.60;91.00
31675;DHT22;18276;45.520;11.018;2022-09-29T18:40:38;16.60;91.10
31675;DHT22;18276;45.520;11.018;2022-09-29T18:43:06;16.60;91.10
31675;DHT22;18276;45.520;11.018;2022-09-29T18:45:35;16.60;91.10
31675;DHT22;18276;45.520;11.018;2022-09-29T18:48:05;16.60;91.10
31675;DHT22;18276;45.520;11.018;2022-09-29T18:50:34;16.60;91.10
31675;DHT22;18276;45.520;11.018;2022-09-29T18:53:02;16.50;91.20
31675;DHT22;18276;45.520;11.018;2022-09-29T18:55:29;16.50;91.20
31675;DHT22;18276;45.520;11.018;2022-09-29T18:57:58;16.50;91.40
31675;DHT22;18276;45.520;11.018;2022-09-29T19:00:31;16.40;91.60
31675;DHT22;18276;45.520;11.018;2022-09-29T19:02:58;16.30;91.70
31675;DHT22;18276;45.520;11.018;2022-09-29T19:05:29;16.30;92.00
31675;DHT22;18276;45.520;11.018;2022-09-29T19:08:03;16.30;92.20
31675;DHT22;18276;45.520;11.018;2022-09-29T19:10:32;16.20;92.50
31675;DHT22;18276;45.520;11.018;2022-09-29T19:13:02;16.20;92.70
31675;DHT22;18276;45.520;11.018;2022-09-29T19:15:30;16.20;92.90
31675;DHT22;18276;45.520;11.018;2022-09-29T19:18:01;16.20;93.00